createdAt,value
2022-11-19T00:02:02.358Z,5.88
2022-11-19T00:04:32.194Z,5.85
2022-11-19T00:07:00.207Z,5.81
2022-11-19T00:09:28.351Z,5.79
2022-11-19T00:12:14.180Z,5.76
2022-11-19T00:14:42.200Z,5.72
2022-11-19T00:17:10.154Z,5.70
2022-11-19T00:19:39.574Z,5.69
2022-11-19T00:22:07.588Z,5.66
2022-11-19T00:24:35.624Z,5.64
2022-11-19T00:27:03.575Z,5.62
2022-11-19T00:29:31.546Z,5.59
2022-11-19T00:31:59.563Z,5.58
2022-11-19T00:34:27.519Z,5.57
2022-11-19T00:36:56.920Z,5.57
2022-11-19T00:39:24.992Z,5.57
2022-11-19T00:41:52.962Z,5.60
2022-11-19T00:44:20.999Z,5.60
2022-11-19T00:46:49.070Z,5.59
2022-11-19T00:49:17.200Z,5.59
2022-11-19T00:51:45.384Z,5.57
2022-11-19T00:54:14.835Z,5.57
2022-11-19T00:56:42.906Z,5.55
2022-11-19T00:59:11.831Z,5.51
2022-11-19T01:01:40.011Z,5.49
2022-11-19T01:04:08.090Z,5.48
2022-11-19T01:06:36.291Z,5.48
2022-11-19T01:09:05.145Z,5.46
2022-11-19T01:11:36.944Z,5.43
2022-11-19T01:14:06.088Z,5.41
2022-11-19T01:16:36.257Z,5.40
2022-11-19T01:19:06.068Z,5.37
2022-11-19T01:21:36.135Z,5.35
2022-11-19T01:24:05.703Z,5.35
2022-11-19T01:26:35.202Z,5.32
2022-11-19T01:29:03.332Z,5.32
2022-11-19T01:31:32.084Z,5.28
2022-11-19T01:34:00.565Z,5.26
2022-11-19T01:36:30.475Z,5.23
2022-11-19T01:38:59.141Z,5.21
2022-11-19T01:41:30.094Z,5.19
2022-11-19T01:44:02.318Z,5.19
2022-11-19T01:46:32.301Z,5.17
2022-11-19T01:49:04.007Z,5.15
2022-11-19T01:51:36.304Z,5.13
2022-11-19T01:54:11.839Z,5.12
2022-11-19T01:56:40.577Z,5.12
2022-11-19T01:59:13.724Z,5.10
2022-11-19T02:01:43.242Z,5.08
2022-11-19T02:04:13.133Z,5.06
2022-11-19T02:06:42.600Z,5.05
2022-11-19T02:09:10.606Z,5.05
2022-11-19T02:11:56.041Z,5.04
2022-11-19T02:14:43.138Z,5.00
2022-11-19T02:17:19.738Z,5.00
2022-11-19T02:20:26.690Z,4.97
2022-11-19T02:23:16.301Z,4.95
2022-11-19T02:26:06.800Z,4.93
2022-11-19T02:28:39.588Z,4.94
2022-11-19T02:31:13.998Z,4.91
2022-11-19T02:33:49.959Z,4.88
2022-11-19T02:36:24.202Z,4.84
2022-11-19T02:38:59.386Z,4.82
2022-11-19T02:41:36.895Z,4.82
2022-11-19T02:44:29.993Z,4.80
2022-11-19T02:47:02.646Z,4.82
2022-11-19T02:49:33.452Z,4.81
2022-11-19T02:52:02.027Z,4.80
2022-11-19T02:54:29.989Z,4.81
2022-11-19T02:56:59.923Z,4.84
2022-11-19T02:59:54.227Z,4.88
2022-11-19T03:02:42.621Z,4.91
2022-11-19T03:05:19.469Z,4.89
2022-11-19T03:07:47.967Z,4.84
2022-11-19T03:10:18.060Z,4.81
2022-11-19T03:12:53.777Z,4.79
2022-11-19T03:15:46.611Z,4.79
2022-11-19T03:18:20.603Z,4.78
2022-11-19T03:20:54.702Z,4.77
2022-11-19T03:23:28.128Z,4.77
2022-11-19T03:26:02.533Z,4.76
2022-11-19T03:28:35.440Z,4.75
2022-11-19T03:31:04.216Z,4.71
2022-11-19T03:33:38.109Z,4.68
2022-11-19T03:36:11.707Z,4.66
2022-11-19T03:38:44.362Z,4.64
2022-11-19T03:41:16.584Z,4.61
2022-11-19T03:43:49.490Z,4.57
2022-11-19T03:46:19.700Z,4.56
2022-11-19T03:48:53.688Z,4.56
2022-11-19T03:51:27.412Z,4.56
2022-11-19T03:53:55.662Z,4.55
2022-11-19T03:56:27.884Z,4.54
2022-11-19T03:58:56.008Z,4.53
2022-11-19T04:01:24.153Z,4.50
2022-11-19T04:04:10.852Z,4.47
2022-11-19T04:06:38.857Z,4.45
2022-11-19T04:09:06.890Z,4.42
2022-11-19T04:11:34.939Z,4.39
2022-11-19T04:14:02.901Z,4.38
2022-11-19T04:16:30.999Z,4.35
2022-11-19T04:19:00.337Z,4.33
2022-11-19T04:21:28.381Z,4.33
2022-11-19T04:23:56.403Z,4.32
2022-11-19T04:26:24.463Z,4.32
2022-11-19T04:28:52.412Z,4.31
2022-11-19T04:31:20.431Z,4.30
2022-11-19T04:33:48.409Z,4.30
2022-11-19T04:36:17.822Z,4.30
2022-11-19T04:38:45.876Z,4.32
2022-11-19T04:41:14.068Z,4.31
2022-11-19T04:43:42.091Z,4.31
2022-11-19T04:46:10.183Z,4.31
2022-11-19T04:48:38.215Z,4.29
2022-11-19T04:51:06.253Z,4.28
2022-11-19T04:53:35.692Z,4.28
2022-11-19T04:56:03.781Z,4.26
2022-11-19T04:58:31.780Z,4.24
2022-11-19T05:00:59.800Z,4.21
2022-11-19T05:03:27.845Z,4.19
2022-11-19T05:05:55.836Z,4.18
2022-11-19T05:08:23.900Z,4.19
2022-11-19T05:10:53.509Z,4.20
2022-11-19T05:13:21.588Z,4.20
2022-11-19T05:15:49.620Z,4.18
2022-11-19T05:18:17.680Z,4.15
2022-11-19T05:20:45.703Z,4.15
2022-11-19T05:23:13.750Z,4.14
2022-11-19T05:25:41.820Z,4.12
2022-11-19T05:28:11.227Z,4.11
2022-11-19T05:30:39.277Z,4.09
2022-11-19T05:33:07.269Z,4.08
2022-11-19T05:35:35.236Z,4.04
2022-11-19T05:38:03.397Z,4.03
2022-11-19T05:40:31.358Z,4.02
2022-11-19T05:43:07.089Z,4.02
2022-11-19T05:45:36.544Z,4.01
2022-11-19T05:48:04.928Z,4.02
2022-11-19T05:50:32.928Z,4.03
2022-11-19T05:53:00.967Z,4.02
2022-11-19T05:55:28.946Z,4.02
2022-11-19T05:57:56.942Z,4.01
2022-11-19T06:00:24.917Z,4.02
2022-11-19T06:02:54.386Z,4.05
2022-11-19T06:05:22.413Z,4.08
2022-11-19T06:07:50.415Z,4.09
2022-11-19T06:10:18.718Z,4.06
2022-11-19T06:12:46.730Z,4.00
2022-11-19T06:15:15.652Z,3.95
2022-11-19T06:17:43.958Z,3.90
2022-11-19T06:20:13.699Z,3.85
2022-11-19T06:22:41.712Z,3.81
2022-11-19T06:25:10.295Z,3.78
2022-11-19T06:27:38.359Z,3.75
2022-11-19T06:30:07.619Z,3.74
2022-11-19T06:32:35.612Z,3.71
2022-11-19T06:35:03.738Z,3.70
2022-11-19T06:37:33.108Z,3.68
2022-11-19T06:40:01.060Z,3.68
2022-11-19T06:42:37.603Z,3.65
2022-11-19T06:45:07.414Z,3.65
2022-11-19T06:47:35.428Z,3.65
2022-11-19T06:50:03.547Z,3.64
2022-11-19T06:52:33.119Z,3.66
2022-11-19T06:55:01.170Z,3.66
2022-11-19T06:57:29.166Z,3.67
2022-11-19T06:59:57.117Z,3.66
2022-11-19T07:02:25.270Z,3.68
2022-11-19T07:04:53.362Z,3.69
2022-11-19T07:07:21.545Z,3.71
2022-11-19T07:09:51.127Z,3.72
2022-11-19T07:12:19.129Z,3.73
2022-11-19T07:14:47.087Z,3.75
2022-11-19T07:17:15.132Z,3.76
2022-11-19T07:19:43.152Z,3.77
2022-11-19T07:22:11.438Z,3.76
2022-11-19T07:24:39.478Z,3.74
2022-11-19T07:27:08.911Z,3.70
2022-11-19T07:29:38.791Z,3.68
2022-11-19T07:32:07.211Z,3.62
2022-11-19T07:34:35.459Z,3.57
2022-11-19T07:37:03.448Z,3.53
2022-11-19T07:39:31.466Z,3.50
2022-11-19T07:42:17.154Z,3.49
2022-11-19T07:44:48.785Z,3.47
2022-11-19T07:47:20.210Z,3.45
2022-11-19T07:49:48.269Z,3.44
2022-11-19T07:52:16.272Z,3.43
2022-11-19T07:54:44.252Z,3.43
2022-11-19T07:57:12.293Z,3.43
2022-11-19T07:59:40.284Z,3.42
2022-11-19T08:02:11.958Z,3.42
2022-11-19T08:04:40.079Z,3.42
2022-11-19T08:07:08.479Z,3.41
2022-11-19T08:09:36.545Z,3.43
2022-11-19T08:12:04.760Z,3.45
2022-11-19T08:14:32.786Z,3.45
2022-11-19T08:17:17.947Z,3.45
2022-11-19T08:19:47.426Z,3.44
2022-11-19T08:22:15.488Z,3.44
2022-11-19T08:24:43.520Z,3.43
2022-11-19T08:27:11.722Z,3.45
2022-11-19T08:29:39.933Z,3.47
2022-11-19T08:32:07.991Z,3.49
2022-11-19T08:34:35.905Z,3.51
2022-11-19T08:37:05.321Z,3.53
2022-11-19T08:39:33.417Z,3.55
2022-11-19T08:42:18.579Z,3.59
2022-11-19T08:44:46.500Z,3.65
2022-11-19T08:47:14.546Z,3.70
2022-11-19T08:49:42.530Z,3.75
2022-11-19T08:52:11.942Z,3.82
2022-11-19T08:54:39.977Z,3.87
2022-11-19T08:57:07.908Z,3.93
2022-11-19T08:59:36.117Z,4.01
2022-11-19T09:02:04.088Z,4.10
2022-11-19T09:04:32.257Z,4.19
2022-11-19T09:07:00.363Z,4.25
2022-11-19T09:09:29.963Z,4.30
2022-11-19T09:11:57.975Z,4.33
2022-11-19T09:14:26.075Z,4.34
2022-11-19T09:16:54.110Z,4.38
2022-11-19T09:19:22.383Z,4.42
2022-11-19T09:21:50.407Z,4.45
2022-11-19T09:24:18.601Z,4.49
2022-11-19T09:26:52.658Z,4.54
2022-11-19T09:29:21.168Z,4.59
2022-11-19T09:31:49.157Z,4.64
2022-11-19T09:34:17.498Z,4.69
2022-11-19T09:36:45.629Z,4.74
2022-11-19T09:39:13.751Z,4.79
2022-11-19T09:41:51.293Z,4.86
2022-11-19T09:44:34.166Z,4.91
2022-11-19T09:47:13.463Z,4.96
2022-11-19T09:49:58.427Z,4.96
2022-11-19T09:52:29.541Z,4.94
2022-11-19T09:54:58.917Z,4.92
2022-11-19T09:57:36.731Z,4.92
2022-11-19T10:00:07.782Z,4.91
2022-11-19T10:02:36.407Z,4.93
2022-11-19T10:05:04.857Z,4.95
2022-11-19T10:07:45.502Z,5.00
2022-11-19T10:10:26.378Z,5.06
2022-11-19T10:13:13.871Z,5.12
2022-11-19T10:15:56.421Z,5.18
2022-11-19T10:18:30.838Z,5.26
2022-11-19T10:21:07.608Z,5.34
2022-11-19T10:23:48.557Z,5.42
2022-11-19T10:26:17.910Z,5.49
2022-11-19T10:28:55.060Z,5.56
2022-11-19T10:31:30.492Z,5.64
2022-11-19T10:34:05.623Z,5.70
2022-11-19T10:36:39.740Z,5.77
2022-11-19T10:39:16.479Z,5.87
2022-11-19T10:41:51.736Z,5.95
2022-11-19T10:44:40.530Z,6.04
2022-11-19T10:47:13.955Z,6.14
2022-11-19T10:49:44.347Z,6.24
2022-11-19T10:52:20.421Z,6.31
2022-11-19T10:54:50.016Z,6.42
2022-11-19T10:57:20.852Z,6.51
2022-11-19T10:59:53.080Z,6.58
2022-11-19T11:02:31.552Z,6.65
2022-11-19T11:05:08.843Z,6.73
2022-11-19T11:07:54.172Z,6.84
2022-11-19T11:10:37.424Z,6.94
2022-11-19T11:13:34.108Z,7.05
2022-11-19T11:16:09.683Z,7.18
2022-11-19T11:18:40.852Z,7.28
2022-11-19T11:21:14.065Z,7.39
2022-11-19T11:23:52.569Z,7.54
2022-11-19T11:26:24.259Z,7.66
2022-11-19T11:28:58.136Z,7.80
2022-11-19T11:31:42.204Z,7.92
2022-11-19T11:34:29.267Z,8.03
2022-11-19T11:36:57.766Z,8.13
2022-11-19T11:39:29.164Z,8.25
2022-11-19T11:42:07.401Z,8.36
2022-11-19T11:44:38.596Z,8.49
2022-11-19T11:47:14.323Z,8.61
2022-11-19T11:49:45.159Z,8.72
2022-11-19T11:52:22.574Z,8.81
2022-11-19T11:55:01.691Z,8.89
2022-11-19T11:57:31.915Z,8.94
2022-11-19T12:00:00.745Z,9.02
2022-11-19T12:02:32.839Z,9.09
2022-11-19T12:05:03.755Z,9.15
2022-11-19T12:07:45.209Z,9.18
2022-11-19T12:10:26.975Z,9.20
2022-11-19T12:13:11.655Z,9.20
2022-11-19T12:15:50.312Z,9.21
2022-11-19T12:18:27.904Z,9.21
2022-11-19T12:21:06.258Z,9.19
2022-11-19T12:23:53.495Z,9.19
2022-11-19T12:26:29.381Z,9.19
2022-11-19T12:29:13.845Z,9.20
2022-11-19T12:32:00.999Z,9.20
2022-11-19T12:34:52.433Z,9.21
2022-11-19T12:37:35.483Z,9.22
2022-11-19T12:40:13.141Z,9.22
2022-11-19T12:42:58.439Z,9.23
2022-11-19T12:45:37.424Z,9.24
2022-11-19T12:48:29.897Z,9.26
2022-11-19T12:51:07.310Z,9.25
2022-11-19T12:53:52.820Z,9.23
2022-11-19T12:56:31.077Z,9.21
2022-11-19T12:59:09.582Z,9.19
2022-11-19T13:01:43.609Z,9.16
2022-11-19T13:04:16.226Z,9.15
2022-11-19T13:06:49.079Z,9.13
2022-11-19T13:09:23.046Z,9.11
2022-11-19T13:11:55.000Z,9.10
2022-11-19T13:14:33.347Z,9.10
2022-11-19T13:17:04.634Z,9.11
2022-11-19T13:19:35.494Z,9.11
2022-11-19T13:22:12.494Z,9.12
2022-11-19T13:24:43.565Z,9.12
2022-11-19T13:27:22.749Z,9.12
2022-11-19T13:29:58.412Z,9.13
2022-11-19T13:32:31.423Z,9.13
2022-11-19T13:35:13.613Z,9.15
2022-11-19T13:37:52.760Z,9.18
2022-11-19T13:40:29.605Z,9.18
2022-11-19T13:43:32.589Z,9.18
2022-11-19T13:46:18.847Z,9.18
2022-11-19T13:48:53.476Z,9.17
2022-11-19T13:51:28.822Z,9.16
2022-11-19T13:54:03.052Z,9.15
2022-11-19T13:56:44.161Z,9.15
2022-11-19T13:59:28.316Z,9.15
2022-11-19T14:02:08.529Z,9.13
2022-11-19T14:04:59.834Z,9.15
2022-11-19T14:07:42.558Z,9.14
2022-11-19T14:10:19.658Z,9.15
2022-11-19T14:13:02.079Z,9.14
2022-11-19T14:16:00.627Z,9.15
2022-11-19T14:19:01.388Z,9.16
2022-11-19T14:22:07.568Z,9.16
2022-11-19T14:25:13.117Z,9.17
2022-11-19T14:27:42.666Z,9.17
2022-11-19T14:30:13.305Z,9.16
2022-11-19T14:32:47.166Z,9.16
2022-11-19T14:35:42.776Z,9.16
2022-11-19T14:38:37.660Z,9.16
2022-11-19T14:41:19.555Z,9.15
2022-11-19T14:44:11.237Z,9.14
2022-11-19T14:46:42.180Z,9.13
2022-11-19T14:49:34.400Z,9.13
2022-11-19T14:52:04.037Z,9.11
2022-11-19T14:54:37.202Z,9.11
2022-11-19T14:57:09.221Z,9.12
2022-11-19T14:59:40.057Z,9.14
2022-11-19T15:02:20.050Z,9.15
2022-11-19T15:04:54.894Z,9.13
2022-11-19T15:07:42.982Z,9.10
2022-11-19T15:10:30.841Z,9.06
2022-11-19T15:13:26.566Z,9.03
2022-11-19T15:16:03.058Z,9.01
2022-11-19T15:19:12.984Z,8.98
2022-11-19T15:22:16.553Z,8.96
2022-11-19T15:25:06.886Z,8.91
2022-11-19T15:28:03.573Z,8.90
2022-11-19T15:30:45.876Z,8.87
2022-11-19T15:33:50.214Z,8.83
2022-11-19T15:36:34.211Z,8.81
2022-11-19T15:39:06.416Z,8.78
2022-11-19T15:42:00.576Z,8.76
2022-11-19T15:44:36.161Z,8.72
2022-11-19T15:47:08.545Z,8.70
2022-11-19T15:49:39.340Z,8.67
2022-11-19T15:52:18.093Z,8.66
2022-11-19T15:54:46.663Z,8.64
2022-11-19T15:57:24.281Z,8.61
2022-11-19T15:59:57.475Z,8.57
2022-11-19T16:02:38.139Z,8.55
2022-11-19T16:05:18.004Z,8.52
2022-11-19T16:07:46.924Z,8.48
2022-11-19T16:10:17.073Z,8.45
2022-11-19T16:13:12.309Z,8.42
2022-11-19T16:16:06.164Z,8.38
2022-11-19T16:18:45.805Z,8.35
2022-11-19T16:21:20.125Z,8.33
2022-11-19T16:24:02.006Z,8.31
2022-11-19T16:26:30.275Z,8.28
2022-11-19T16:28:58.363Z,8.26
2022-11-19T16:31:31.946Z,8.23
2022-11-19T16:34:01.035Z,8.22
2022-11-19T16:36:32.799Z,8.20
2022-11-19T16:39:01.541Z,8.19
2022-11-19T16:41:49.369Z,8.18
2022-11-19T16:44:22.039Z,8.16
2022-11-19T16:46:51.570Z,8.15
2022-11-19T16:49:32.149Z,8.13
2022-11-19T16:52:03.133Z,8.12
2022-11-19T16:54:48.519Z,8.12
2022-11-19T16:57:20.148Z,8.09
2022-11-19T16:59:51.109Z,8.07
2022-11-19T17:02:21.768Z,8.07
2022-11-19T17:04:51.846Z,8.05
2022-11-19T17:07:26.880Z,8.05
2022-11-19T17:10:30.277Z,8.05
2022-11-19T17:13:02.710Z,8.04
2022-11-19T17:15:38.633Z,8.03
2022-11-19T17:18:17.240Z,8.03
2022-11-19T17:20:53.387Z,8.02
2022-11-19T17:23:24.335Z,8.02
2022-11-19T17:25:56.078Z,8.01
2022-11-19T17:28:31.064Z,8.00
2022-11-19T17:31:01.144Z,7.99
2022-11-19T17:33:33.937Z,7.99
2022-11-19T17:36:03.952Z,7.99
2022-11-19T17:38:34.363Z,7.99
2022-11-19T17:41:05.139Z,8.00
2022-11-19T17:43:52.501Z,7.99
2022-11-19T17:46:21.360Z,7.99
2022-11-19T17:48:50.496Z,8.00
2022-11-19T17:51:20.497Z,8.00
2022-11-19T17:53:51.486Z,8.01
2022-11-19T17:56:22.771Z,8.01
2022-11-19T17:58:50.836Z,8.02
2022-11-19T18:01:19.225Z,8.01
2022-11-19T18:03:48.030Z,8.03
2022-11-19T18:06:18.077Z,8.03
2022-11-19T18:08:46.731Z,8.03
2022-11-19T18:11:19.374Z,8.04
2022-11-19T18:13:49.253Z,8.04
2022-11-19T18:16:19.756Z,8.03
2022-11-19T18:18:48.259Z,8.04
2022-11-19T18:21:18.465Z,8.04
2022-11-19T18:23:48.008Z,8.05
2022-11-19T18:26:20.685Z,8.06
2022-11-19T18:28:49.412Z,8.07
2022-11-19T18:31:20.501Z,8.06
2022-11-19T18:33:49.351Z,8.06
2022-11-19T18:36:18.985Z,8.06
2022-11-19T18:38:47.068Z,8.07
2022-11-19T18:41:19.868Z,8.09
2022-11-19T18:44:05.726Z,8.08
2022-11-19T18:46:36.638Z,8.10
2022-11-19T18:49:04.680Z,8.10
2022-11-19T18:51:33.383Z,8.11
2022-11-19T18:54:01.514Z,8.13
2022-11-19T18:56:31.139Z,8.13
2022-11-19T18:59:04.503Z,8.14
2022-11-19T19:01:33.227Z,8.14
2022-11-19T19:04:02.164Z,8.15
2022-11-19T19:06:32.612Z,8.15
2022-11-19T19:09:00.959Z,8.14
2022-11-19T19:11:47.913Z,8.14
2022-11-19T19:14:16.045Z,8.15
2022-11-19T19:16:44.504Z,8.15
2022-11-19T19:19:16.144Z,8.15
2022-11-19T19:21:44.204Z,8.16
2022-11-19T19:24:12.434Z,8.17
2022-11-19T19:26:41.867Z,8.17
2022-11-19T19:29:10.493Z,8.17
2022-11-19T19:31:38.790Z,8.17
2022-11-19T19:34:07.012Z,8.16
2022-11-19T19:36:36.923Z,8.17
2022-11-19T19:39:05.314Z,8.17
2022-11-19T19:41:36.346Z,8.16
2022-11-19T19:44:07.179Z,8.16
2022-11-19T19:46:35.885Z,8.17
2022-11-19T19:49:04.166Z,8.16
2022-11-19T19:51:32.905Z,8.18
2022-11-19T19:54:02.113Z,8.20
2022-11-19T19:56:31.950Z,8.21
2022-11-19T19:59:00.621Z,8.23
2022-11-19T20:01:31.860Z,8.25
2022-11-19T20:04:04.845Z,8.26
2022-11-19T20:06:41.047Z,8.27
2022-11-19T20:09:09.769Z,8.27
2022-11-19T20:11:38.626Z,8.27
2022-11-19T20:14:07.113Z,8.27
2022-11-19T20:16:40.324Z,8.26
2022-11-19T20:19:09.409Z,8.24
2022-11-19T20:21:37.617Z,8.22
2022-11-19T20:24:12.232Z,8.20
2022-11-19T20:26:41.807Z,8.17
2022-11-19T20:29:12.916Z,8.14
2022-11-19T20:31:46.589Z,8.11
2022-11-19T20:34:15.345Z,8.11
2022-11-19T20:36:44.218Z,8.09
2022-11-19T20:39:12.754Z,8.07
2022-11-19T20:41:58.453Z,8.05
2022-11-19T20:44:26.557Z,8.04
2022-11-19T20:46:57.305Z,8.04
2022-11-19T20:49:27.210Z,8.04
2022-11-19T20:51:55.373Z,8.02
2022-11-19T20:54:24.920Z,8.02
2022-11-19T20:56:54.651Z,8.03
2022-11-19T20:59:23.836Z,8.03
2022-11-19T21:01:53.029Z,8.02
2022-11-19T21:04:23.614Z,8.03
2022-11-19T21:06:51.622Z,8.03
2022-11-19T21:09:20.614Z,8.04
2022-11-19T21:11:48.986Z,8.04
2022-11-19T21:14:16.972Z,8.06
2022-11-19T21:16:45.019Z,8.07
2022-11-19T21:19:13.603Z,8.06
2022-11-19T21:21:43.144Z,8.06
2022-11-19T21:24:11.161Z,8.07
2022-11-19T21:26:39.261Z,8.07
2022-11-19T21:29:07.693Z,8.06
2022-11-19T21:31:42.152Z,8.07
2022-11-19T21:34:12.169Z,8.06
2022-11-19T21:36:42.623Z,8.08
2022-11-19T21:39:11.616Z,8.08
2022-11-19T21:41:39.925Z,8.08
2022-11-19T21:44:08.524Z,8.08
2022-11-19T21:46:37.387Z,8.09
2022-11-19T21:49:06.466Z,8.10
2022-11-19T21:51:34.934Z,8.09
2022-11-19T21:54:04.279Z,8.10
2022-11-19T21:56:38.215Z,8.12
2022-11-19T21:59:06.787Z,8.12
2022-11-19T22:01:34.949Z,8.13
2022-11-19T22:04:02.982Z,8.13
2022-11-19T22:06:31.979Z,8.15
2022-11-19T22:08:59.993Z,8.16
2022-11-19T22:11:32.471Z,8.16
2022-11-19T22:14:02.452Z,8.18
2022-11-19T22:16:32.084Z,8.19
2022-11-19T22:19:00.148Z,8.18
2022-11-19T22:21:29.159Z,8.17
2022-11-19T22:23:57.578Z,8.16
2022-11-19T22:26:26.386Z,8.15
2022-11-19T22:28:56.015Z,8.17
2022-11-19T22:31:24.332Z,8.15
2022-11-19T22:33:53.827Z,8.13
2022-11-19T22:36:23.170Z,8.14
2022-11-19T22:38:52.144Z,8.14
2022-11-19T22:41:22.306Z,8.15
2022-11-19T22:43:51.080Z,8.14
2022-11-19T22:46:21.739Z,8.15
2022-11-19T22:48:49.916Z,8.16
2022-11-19T22:51:20.208Z,8.16
2022-11-19T22:53:48.709Z,8.17
2022-11-19T22:56:19.212Z,8.17
2022-11-19T22:58:47.471Z,8.18
2022-11-19T23:01:18.597Z,8.18
2022-11-19T23:03:48.456Z,8.18
2022-11-19T23:06:16.543Z,8.19
2022-11-19T23:08:44.999Z,8.18
2022-11-19T23:11:14.766Z,8.20
2022-11-19T23:13:43.672Z,8.20
2022-11-19T23:16:13.233Z,8.21
2022-11-19T23:18:43.261Z,8.22
2022-11-19T23:21:14.836Z,8.22
2022-11-19T23:23:43.191Z,8.24
2022-11-19T23:26:13.636Z,8.24
2022-11-19T23:28:42.408Z,8.26
2022-11-19T23:31:14.434Z,8.29
2022-11-19T23:33:42.482Z,8.28
2022-11-19T23:36:14.754Z,8.31
2022-11-19T23:38:43.353Z,8.31
2022-11-19T23:41:13.256Z,8.33
2022-11-19T23:43:41.763Z,8.35
2022-11-19T23:46:11.783Z,8.36
2022-11-19T23:48:40.986Z,8.38
2022-11-19T23:51:11.061Z,8.41
2022-11-19T23:53:40.440Z,8.43
2022-11-19T23:56:09.802Z,8.46
2022-11-19T23:58:39.050Z,8.48
